sensor_id;sensor_type;location;lat;lon;timestamp;temperature;humidity
84739;DHT22;74969;44.836;-0.586;2024-01-30T00:02:21;12.30;73.80
84739;DHT22;74969;44.836;-0.586;2024-01-30T00:04:47;12.20;74.10
84739;DHT22;74969;44.836;-0.586;2024-01-30T00:07:13;12.30;73.90
84739;DHT22;74969;44.836;-0.586;2024-01-30T00:09:38;12.30;74.00
84739;DHT22;74969;44.836;-0.586;2024-01-30T00:12:07;12.30;74.10
84739;DHT22;74969;44.836;-0.586;2024-01-30T00:14:33;12.20;74.30
84739;DHT22;74969;44.836;-0.586;2024-01-30T00:16:58;12.20;74.30
84739;DHT22;74969;44.836;-0.586;2024-01-30T00:19:24;12.20;74.50
84739;DHT22;74969;44.836;-0.586;2024-01-30T00:21:50;12.20;74.50
84739;DHT22;74969;44.836;-0.586;2024-01-30T00:24:15;12.10;74.70
84739;DHT22;74969;44.836;-0.586;2024-01-30T00:26:41;12.10;74.70
84739;DHT22;74969;44.836;-0.586;2024-01-30T00:29:07;12.10;74.90
84739;DHT22;74969;44.836;-0.586;2024-01-30T00:31:32;12.00;75.00
84739;DHT22;74969;44.836;-0.586;2024-01-30T00:33:58;12.00;74.80
84739;DHT22;74969;44.836;-0.586;2024-01-30T00:36:24;12.00;75.00
84739;DHT22;74969;44.836;-0.586;2024-01-30T00:38:49;12.00;75.00
84739;DHT22;74969;44.836;-0.586;2024-01-30T00:41:17;12.10;75.00
84739;DHT22;74969;44.836;-0.586;2024-01-30T00:43:43;12.10;75.00
84739;DHT22;74969;44.836;-0.586;2024-01-30T00:46:08;12.10;75.20
84739;DHT22;74969;44.836;-0.586;2024-01-30T00:48:34;12.00;75.20
84739;DHT22;74969;44.836;-0.586;2024-01-30T00:51:00;12.00;75.40
84739;DHT22;74969;44.836;-0.586;2024-01-30T00:53:26;12.00;75.00
84739;DHT22;74969;44.836;-0.586;2024-01-30T00:55:51;12.10;75.20
84739;DHT22;74969;44.836;-0.586;2024-01-30T00:58:17;12.00;75.50
84739;DHT22;74969;44.836;-0.586;2024-01-30T01:00:44;12.00;75.50
84739;DHT22;74969;44.836;-0.586;2024-01-30T01:03:10;12.00;75.60
84739;DHT22;74969;44.836;-0.586;2024-01-30T01:05:36;12.00;75.60
84739;DHT22;74969;44.836;-0.586;2024-01-30T01:08:01;12.00;75.70
84739;DHT22;74969;44.836;-0.586;2024-01-30T01:10:27;11.90;75.80
84739;DHT22;74969;44.836;-0.586;2024-01-30T01:12:53;11.90;76.00
84739;DHT22;74969;44.836;-0.586;2024-01-30T01:15:19;11.90;75.90
84739;DHT22;74969;44.836;-0.586;2024-01-30T01:17:44;11.90;76.10
84739;DHT22;74969;44.836;-0.586;2024-01-30T01:20:10;11.80;76.20
84739;DHT22;74969;44.836;-0.586;2024-01-30T01:22:37;11.80;76.40
84739;DHT22;74969;44.836;-0.586;2024-01-30T01:25:04;11.80;76.40
84739;DHT22;74969;44.836;-0.586;2024-01-30T01:27:32;11.80;76.30
84739;DHT22;74969;44.836;-0.586;2024-01-30T01:29:59;11.80;76.40
84739;DHT22;74969;44.836;-0.586;2024-01-30T01:32:25;11.80;76.60
84739;DHT22;74969;44.836;-0.586;2024-01-30T01:34:51;11.80;76.60
84739;DHT22;74969;44.836;-0.586;2024-01-30T01:37:17;11.80;76.80
84739;DHT22;74969;44.836;-0.586;2024-01-30T01:39:43;11.70;76.70
84739;DHT22;74969;44.836;-0.586;2024-01-30T01:42:09;11.80;76.70
84739;DHT22;74969;44.836;-0.586;2024-01-30T01:44:34;11.70;76.90
84739;DHT22;74969;44.836;-0.586;2024-01-30T01:47:00;11.70;77.00
84739;DHT22;74969;44.836;-0.586;2024-01-30T01:49:27;11.70;76.90
84739;DHT22;74969;44.836;-0.586;2024-01-30T01:51:55;11.70;77.00
84739;DHT22;74969;44.836;-0.586;2024-01-30T01:54:22;11.80;76.90
84739;DHT22;74969;44.836;-0.586;2024-01-30T01:56:49;11.70;77.00
84739;DHT22;74969;44.836;-0.586;2024-01-30T01:59:17;11.70;77.00
84739;DHT22;74969;44.836;-0.586;2024-01-30T02:01:43;11.70;77.20
84739;DHT22;74969;44.836;-0.586;2024-01-30T02:04:11;11.70;77.00
84739;DHT22;74969;44.836;-0.586;2024-01-30T02:06:37;11.70;77.20
84739;DHT22;74969;44.836;-0.586;2024-01-30T02:09:04;11.70;76.90
84739;DHT22;74969;44.836;-0.586;2024-01-30T02:11:30;11.70;77.10
84739;DHT22;74969;44.836;-0.586;2024-01-30T02:13:56;11.70;77.20
84739;DHT22;74969;44.836;-0.586;2024-01-30T02:16:21;11.70;77.20
84739;DHT22;74969;44.836;-0.586;2024-01-30T02:18:47;11.60;77.30
84739;DHT22;74969;44.836;-0.586;2024-01-30T02:21:16;11.60;77.70
84739;DHT22;74969;44.836;-0.586;2024-01-30T02:23:44;11.60;77.50
84739;DHT22;74969;44.836;-0.586;2024-01-30T02:26:11;11.50;77.50
84739;DHT22;74969;44.836;-0.586;2024-01-30T02:28:37;11.50;77.70
84739;DHT22;74969;44.836;-0.586;2024-01-30T02:31:04;11.50;77.70
84739;DHT22;74969;44.836;-0.586;2024-01-30T02:33:29;11.50;77.90
84739;DHT22;74969;44.836;-0.586;2024-01-30T02:35:55;11.50;78.10
84739;DHT22;74969;44.836;-0.586;2024-01-30T02:38:21;11.40;78.10
84739;DHT22;74969;44.836;-0.586;2024-01-30T02:40:47;11.40;78.30
84739;DHT22;74969;44.836;-0.586;2024-01-30T02:43:12;11.30;78.40
84739;DHT22;74969;44.836;-0.586;2024-01-30T02:45:38;11.30;78.60
84739;DHT22;74969;44.836;-0.586;2024-01-30T02:48:04;11.30;78.70
84739;DHT22;74969;44.836;-0.586;2024-01-30T02:50:29;11.20;78.70
84739;DHT22;74969;44.836;-0.586;2024-01-30T02:52:55;11.20;79.00
84739;DHT22;74969;44.836;-0.586;2024-01-30T02:55:21;11.20;79.20
84739;DHT22;74969;44.836;-0.586;2024-01-30T02:57:46;11.20;79.10
84739;DHT22;74969;44.836;-0.586;2024-01-30T03:00:12;11.10;79.30
84739;DHT22;74969;44.836;-0.586;2024-01-30T03:02:38;11.20;79.30
84739;DHT22;74969;44.836;-0.586;2024-01-30T03:05:06;11.20;79.20
84739;DHT22;74969;44.836;-0.586;2024-01-30T03:07:31;11.20;79.20
84739;DHT22;74969;44.836;-0.586;2024-01-30T03:09:57;11.20;79.10
84739;DHT22;74969;44.836;-0.586;2024-01-30T03:12:22;11.20;79.10
84739;DHT22;74969;44.836;-0.586;2024-01-30T03:14:48;11.20;79.00
84739;DHT22;74969;44.836;-0.586;2024-01-30T03:17:15;11.20;79.00
84739;DHT22;74969;44.836;-0.586;2024-01-30T03:19:40;11.30;78.80
84739;DHT22;74969;44.836;-0.586;2024-01-30T03:22:06;11.30;78.90
84739;DHT22;74969;44.836;-0.586;2024-01-30T03:24:32;11.20;78.90
84739;DHT22;74969;44.836;-0.586;2024-01-30T03:26:58;11.20;78.90
84739;DHT22;74969;44.836;-0.586;2024-01-30T03:29:23;11.20;79.00
84739;DHT22;74969;44.836;-0.586;2024-01-30T03:31:49;11.20;79.00
84739;DHT22;74969;44.836;-0.586;2024-01-30T03:34:15;11.20;78.90
84739;DHT22;74969;44.836;-0.586;2024-01-30T03:36:40;11.20;78.90
84739;DHT22;74969;44.836;-0.586;2024-01-30T03:39:06;11.20;79.10
84739;DHT22;74969;44.836;-0.586;2024-01-30T03:41:32;11.20;79.00
84739;DHT22;74969;44.836;-0.586;2024-01-30T03:43:57;11.20;79.00
84739;DHT22;74969;44.836;-0.586;2024-01-30T03:46:23;11.20;79.20
84739;DHT22;74969;44.836;-0.586;2024-01-30T03:48:49;11.20;79.40
84739;DHT22;74969;44.836;-0.586;2024-01-30T03:51:15;11.10;79.10
84739;DHT22;74969;44.836;-0.586;2024-01-30T03:53:42;11.10;79.30
84739;DHT22;74969;44.836;-0.586;2024-01-30T03:56:08;11.10;79.40
84739;DHT22;74969;44.836;-0.586;2024-01-30T03:58:34;11.10;79.20
84739;DHT22;74969;44.836;-0.586;2024-01-30T04:01:00;11.10;79.50
84739;DHT22;74969;44.836;-0.586;2024-01-30T04:03:26;11.10;79.60
84739;DHT22;74969;44.836;-0.586;2024-01-30T04:05:52;11.00;79.80
84739;DHT22;74969;44.836;-0.586;2024-01-30T04:08:18;11.00;79.40
84739;DHT22;74969;44.836;-0.586;2024-01-30T04:10:44;11.00;79.70
84739;DHT22;74969;44.836;-0.586;2024-01-30T04:13:09;11.00;79.60
84739;DHT22;74969;44.836;-0.586;2024-01-30T04:15:35;11.00;79.80
84739;DHT22;74969;44.836;-0.586;2024-01-30T04:18:01;11.00;79.80
84739;DHT22;74969;44.836;-0.586;2024-01-30T04:20:27;11.00;79.70
84739;DHT22;74969;44.836;-0.586;2024-01-30T04:22:52;11.00;79.80
84739;DHT22;74969;44.836;-0.586;2024-01-30T04:25:18;10.90;80.00
84739;DHT22;74969;44.836;-0.586;2024-01-30T04:27:44;11.00;80.00
84739;DHT22;74969;44.836;-0.586;2024-01-30T04:30:10;10.90;80.00
84739;DHT22;74969;44.836;-0.586;2024-01-30T04:32:36;11.00;80.00
84739;DHT22;74969;44.836;-0.586;2024-01-30T04:35:02;11.00;80.00
84739;DHT22;74969;44.836;-0.586;2024-01-30T04:37:28;11.00;80.00
84739;DHT22;74969;44.836;-0.586;2024-01-30T04:39:54;10.90;79.90
84739;DHT22;74969;44.836;-0.586;2024-01-30T04:42:19;11.00;80.00
84739;DHT22;74969;44.836;-0.586;2024-01-30T04:44:45;10.90;80.20
84739;DHT22;74969;44.836;-0.586;2024-01-30T04:47:11;10.90;80.20
84739;DHT22;74969;44.836;-0.586;2024-01-30T04:49:39;10.90;80.30
84739;DHT22;74969;44.836;-0.586;2024-01-30T04:52:06;10.80;80.40
84739;DHT22;74969;44.836;-0.586;2024-01-30T04:54:31;10.80;80.40
84739;DHT22;74969;44.836;-0.586;2024-01-30T04:56:57;10.80;80.50
84739;DHT22;74969;44.836;-0.586;2024-01-30T04:59:23;10.80;80.60
84739;DHT22;74969;44.836;-0.586;2024-01-30T05:01:49;10.80;80.60
84739;DHT22;74969;44.836;-0.586;2024-01-30T05:04:15;10.80;80.70
84739;DHT22;74969;44.836;-0.586;2024-01-30T05:06:41;10.70;80.80
84739;DHT22;74969;44.836;-0.586;2024-01-30T05:09:06;10.80;80.80
84739;DHT22;74969;44.836;-0.586;2024-01-30T05:11:40;10.70;80.90
84739;DHT22;74969;44.836;-0.586;2024-01-30T05:14:06;10.70;81.10
84739;DHT22;74969;44.836;-0.586;2024-01-30T05:16:32;10.70;81.20
84739;DHT22;74969;44.836;-0.586;2024-01-30T05:18:58;10.60;81.20
84739;DHT22;74969;44.836;-0.586;2024-01-30T05:21:24;10.60;81.40
84739;DHT22;74969;44.836;-0.586;2024-01-30T05:23:50;10.50;81.50
84739;DHT22;74969;44.836;-0.586;2024-01-30T05:26:16;10.50;81.50
84739;DHT22;74969;44.836;-0.586;2024-01-30T05:28:42;10.50;81.60
84739;DHT22;74969;44.836;-0.586;2024-01-30T05:31:10;10.50;81.70
84739;DHT22;74969;44.836;-0.586;2024-01-30T05:33:36;10.50;81.70
84739;DHT22;74969;44.836;-0.586;2024-01-30T05:36:02;10.50;81.60
84739;DHT22;74969;44.836;-0.586;2024-01-30T05:38:31;10.50;81.70
84739;DHT22;74969;44.836;-0.586;2024-01-30T05:40:57;10.50;81.60
84739;DHT22;74969;44.836;-0.586;2024-01-30T05:43:26;10.50;81.70
84739;DHT22;74969;44.836;-0.586;2024-01-30T05:45:51;10.50;81.80
84739;DHT22;74969;44.836;-0.586;2024-01-30T05:48:18;10.40;81.80
84739;DHT22;74969;44.836;-0.586;2024-01-30T05:50:44;10.40;82.00
84739;DHT22;74969;44.836;-0.586;2024-01-30T05:53:10;10.40;82.00
84739;DHT22;74969;44.836;-0.586;2024-01-30T05:55:36;10.40;82.00
84739;DHT22;74969;44.836;-0.586;2024-01-30T05:58:02;10.40;81.90
84739;DHT22;74969;44.836;-0.586;2024-01-30T06:00:27;10.40;81.90
84739;DHT22;74969;44.836;-0.586;2024-01-30T06:02:53;10.40;81.90
84739;DHT22;74969;44.836;-0.586;2024-01-30T06:05:18;10.40;82.00
84739;DHT22;74969;44.836;-0.586;2024-01-30T06:07:44;10.30;81.90
84739;DHT22;74969;44.836;-0.586;2024-01-30T06:10:10;10.40;81.40
84739;DHT22;74969;44.836;-0.586;2024-01-30T06:12:35;10.40;81.50
84739;DHT22;74969;44.836;-0.586;2024-01-30T06:15:02;10.40;81.70
84739;DHT22;74969;44.836;-0.586;2024-01-30T06:17:28;10.40;81.80
84739;DHT22;74969;44.836;-0.586;2024-01-30T06:19:54;10.30;81.70
84739;DHT22;74969;44.836;-0.586;2024-01-30T06:22:19;10.30;81.80
84739;DHT22;74969;44.836;-0.586;2024-01-30T06:24:45;10.30;82.00
84739;DHT22;74969;44.836;-0.586;2024-01-30T06:27:13;10.30;82.00
84739;DHT22;74969;44.836;-0.586;2024-01-30T06:29:39;10.30;82.10
84739;DHT22;74969;44.836;-0.586;2024-01-30T06:32:05;10.30;82.20
84739;DHT22;74969;44.836;-0.586;2024-01-30T06:34:31;10.20;82.20
84739;DHT22;74969;44.836;-0.586;2024-01-30T06:36:57;10.20;82.20
84739;DHT22;74969;44.836;-0.586;2024-01-30T06:39:22;10.30;82.10
84739;DHT22;74969;44.836;-0.586;2024-01-30T06:41:48;10.20;82.20
84739;DHT22;74969;44.836;-0.586;2024-01-30T06:44:14;10.20;82.10
84739;DHT22;74969;44.836;-0.586;2024-01-30T06:46:40;10.20;82.20
84739;DHT22;74969;44.836;-0.586;2024-01-30T06:49:06;10.20;82.20
84739;DHT22;74969;44.836;-0.586;2024-01-30T06:51:31;10.10;82.30
84739;DHT22;74969;44.836;-0.586;2024-01-30T06:53:57;10.10;82.40
84739;DHT22;74969;44.836;-0.586;2024-01-30T06:56:23;10.10;82.20
84739;DHT22;74969;44.836;-0.586;2024-01-30T06:58:49;10.10;82.50
84739;DHT22;74969;44.836;-0.586;2024-01-30T07:01:16;10.10;82.50
84739;DHT22;74969;44.836;-0.586;2024-01-30T07:03:42;10.00;82.70
84739;DHT22;74969;44.836;-0.586;2024-01-30T07:06:08;10.00;82.60
84739;DHT22;74969;44.836;-0.586;2024-01-30T07:08:34;10.00;82.70
84739;DHT22;74969;44.836;-0.586;2024-01-30T07:10:59;10.00;82.90
84739;DHT22;74969;44.836;-0.586;2024-01-30T07:13:25;9.90;82.90
84739;DHT22;74969;44.836;-0.586;2024-01-30T07:15:51;9.90;82.90
84739;DHT22;74969;44.836;-0.586;2024-01-30T07:18:16;9.90;82.90
84739;DHT22;74969;44.836;-0.586;2024-01-30T07:20:42;9.90;82.90
84739;DHT22;74969;44.836;-0.586;2024-01-30T07:23:14;9.90;83.00
84739;DHT22;74969;44.836;-0.586;2024-01-30T07:25:42;9.90;83.10
84739;DHT22;74969;44.836;-0.586;2024-01-30T07:28:08;9.80;83.10
84739;DHT22;74969;44.836;-0.586;2024-01-30T07:30:42;9.80;83.20
84739;DHT22;74969;44.836;-0.586;2024-01-30T07:33:08;9.80;83.30
84739;DHT22;74969;44.836;-0.586;2024-01-30T07:35:35;9.80;83.20
84739;DHT22;74969;44.836;-0.586;2024-01-30T07:38:00;9.80;83.20
84739;DHT22;74969;44.836;-0.586;2024-01-30T07:40:26;9.70;83.20
84739;DHT22;74969;44.836;-0.586;2024-01-30T07:42:53;9.70;83.40
84739;DHT22;74969;44.836;-0.586;2024-01-30T07:45:19;9.70;83.50
84739;DHT22;74969;44.836;-0.586;2024-01-30T07:47:50;9.70;83.40
84739;DHT22;74969;44.836;-0.586;2024-01-30T07:50:16;9.70;83.40
84739;DHT22;74969;44.836;-0.586;2024-01-30T07:52:42;9.70;83.40
84739;DHT22;74969;44.836;-0.586;2024-01-30T07:55:08;9.70;83.50
84739;DHT22;74969;44.836;-0.586;2024-01-30T07:57:34;9.70;83.40
84739;DHT22;74969;44.836;-0.586;2024-01-30T08:00:00;9.70;83.50
84739;DHT22;74969;44.836;-0.586;2024-01-30T08:04:48;10.30;82.30
84739;DHT22;74969;44.836;-0.586;2024-01-30T08:07:15;9.70;83.30
84739;DHT22;74969;44.836;-0.586;2024-01-30T08:09:43;9.70;83.50
84739;DHT22;74969;44.836;-0.586;2024-01-30T08:12:08;9.70;83.60
84739;DHT22;74969;44.836;-0.586;2024-01-30T08:14:34;9.70;83.50
84739;DHT22;74969;44.836;-0.586;2024-01-30T08:17:00;9.70;83.50
84739;DHT22;74969;44.836;-0.586;2024-01-30T08:19:25;9.70;83.50
84739;DHT22;74969;44.836;-0.586;2024-01-30T08:21:51;9.70;83.50
84739;DHT22;74969;44.836;-0.586;2024-01-30T08:24:17;9.70;83.50
84739;DHT22;74969;44.836;-0.586;2024-01-30T08:29:19;10.20;83.50
84739;DHT22;74969;44.836;-0.586;2024-01-30T08:31:46;9.80;83.40
84739;DHT22;74969;44.836;-0.586;2024-01-30T08:34:12;9.80;83.30
84739;DHT22;74969;44.836;-0.586;2024-01-30T08:36:37;9.80;83.40
84739;DHT22;74969;44.836;-0.586;2024-01-30T08:39:03;9.80;83.30
84739;DHT22;74969;44.836;-0.586;2024-01-30T08:41:30;9.90;83.30
84739;DHT22;74969;44.836;-0.586;2024-01-30T08:43:56;10.00;83.00
84739;DHT22;74969;44.836;-0.586;2024-01-30T08:46:22;10.10;82.90
84739;DHT22;74969;44.836;-0.586;2024-01-30T08:48:47;10.50;82.40
84739;DHT22;74969;44.836;-0.586;2024-01-30T08:51:13;10.90;80.70
84739;DHT22;74969;44.836;-0.586;2024-01-30T08:53:40;11.20;80.70
84739;DHT22;74969;44.836;-0.586;2024-01-30T08:56:06;11.70;79.30
84739;DHT22;74969;44.836;-0.586;2024-01-30T08:58:32;12.10;77.20
84739;DHT22;74969;44.836;-0.586;2024-01-30T09:00:58;12.50;76.40
84739;DHT22;74969;44.836;-0.586;2024-01-30T09:03:24;12.70;74.80
84739;DHT22;74969;44.836;-0.586;2024-01-30T09:05:50;12.90;73.70
84739;DHT22;74969;44.836;-0.586;2024-01-30T09:08:16;12.90;73.70
84739;DHT22;74969;44.836;-0.586;2024-01-30T09:10:41;12.80;73.60
84739;DHT22;74969;44.836;-0.586;2024-01-30T09:13:07;13.00;73.10
84739;DHT22;74969;44.836;-0.586;2024-01-30T09:15:33;13.00;72.30
84739;DHT22;74969;44.836;-0.586;2024-01-30T09:17:58;13.30;73.70
84739;DHT22;74969;44.836;-0.586;2024-01-30T09:20:24;13.70;71.40
84739;DHT22;74969;44.836;-0.586;2024-01-30T09:22:50;13.80;70.30
84739;DHT22;74969;44.836;-0.586;2024-01-30T09:25:15;13.80;70.70
84739;DHT22;74969;44.836;-0.586;2024-01-30T09:27:41;14.10;69.80
84739;DHT22;74969;44.836;-0.586;2024-01-30T09:30:07;14.30;69.40
84739;DHT22;74969;44.836;-0.586;2024-01-30T09:32:35;14.30;69.20
84739;DHT22;74969;44.836;-0.586;2024-01-30T09:35:02;14.20;68.50
84739;DHT22;74969;44.836;-0.586;2024-01-30T09:37:27;14.20;68.40
84739;DHT22;74969;44.836;-0.586;2024-01-30T09:39:53;14.30;67.80
84739;DHT22;74969;44.836;-0.586;2024-01-30T09:42:35;14.10;68.40
84739;DHT22;74969;44.836;-0.586;2024-01-30T09:45:04;13.80;69.20
84739;DHT22;74969;44.836;-0.586;2024-01-30T09:47:40;13.70;69.50
84739;DHT22;74969;44.836;-0.586;2024-01-30T09:50:10;13.80;69.60
84739;DHT22;74969;44.836;-0.586;2024-01-30T09:52:36;13.90;69.30
84739;DHT22;74969;44.836;-0.586;2024-01-30T09:55:03;13.90;68.90
84739;DHT22;74969;44.836;-0.586;2024-01-30T09:57:29;14.00;69.20
84739;DHT22;74969;44.836;-0.586;2024-01-30T09:59:55;13.80;68.80
84739;DHT22;74969;44.836;-0.586;2024-01-30T10:02:26;13.80;69.50
84739;DHT22;74969;44.836;-0.586;2024-01-30T10:04:53;13.90;69.80
84739;DHT22;74969;44.836;-0.586;2024-01-30T10:07:19;13.90;69.50
84739;DHT22;74969;44.836;-0.586;2024-01-30T10:09:45;14.10;69.10
84739;DHT22;74969;44.836;-0.586;2024-01-30T10:12:12;14.20;68.80
84739;DHT22;74969;44.836;-0.586;2024-01-30T10:14:41;14.10;68.30
84739;DHT22;74969;44.836;-0.586;2024-01-30T10:17:08;13.90;68.60
84739;DHT22;74969;44.836;-0.586;2024-01-30T10:19:35;13.70;69.10
84739;DHT22;74969;44.836;-0.586;2024-01-30T10:22:01;13.50;69.60
84739;DHT22;74969;44.836;-0.586;2024-01-30T10:24:27;13.30;70.40
84739;DHT22;74969;44.836;-0.586;2024-01-30T10:26:54;13.30;70.90
84739;DHT22;74969;44.836;-0.586;2024-01-30T10:29:22;13.40;70.60
84739;DHT22;74969;44.836;-0.586;2024-01-30T10:32:04;13.50;70.70
84739;DHT22;74969;44.836;-0.586;2024-01-30T10:34:32;13.60;71.10
84739;DHT22;74969;44.836;-0.586;2024-01-30T10:37:08;13.80;70.30
84739;DHT22;74969;44.836;-0.586;2024-01-30T10:39:43;13.90;69.40
84739;DHT22;74969;44.836;-0.586;2024-01-30T10:42:20;14.10;69.80
84739;DHT22;74969;44.836;-0.586;2024-01-30T10:47:21;14.50;67.90
84739;DHT22;74969;44.836;-0.586;2024-01-30T10:49:51;14.30;67.90
84739;DHT22;74969;44.836;-0.586;2024-01-30T10:52:18;14.40;69.00
84739;DHT22;74969;44.836;-0.586;2024-01-30T10:54:44;14.50;67.50
84739;DHT22;74969;44.836;-0.586;2024-01-30T10:57:11;14.60;67.60
84739;DHT22;74969;44.836;-0.586;2024-01-30T10:59:38;14.70;67.20
84739;DHT22;74969;44.836;-0.586;2024-01-30T11:02:05;14.70;66.60
84739;DHT22;74969;44.836;-0.586;2024-01-30T11:04:38;14.50;67.30
84739;DHT22;74969;44.836;-0.586;2024-01-30T11:07:23;14.80;67.90
84739;DHT22;74969;44.836;-0.586;2024-01-30T11:12:16;15.20;66.30
84739;DHT22;74969;44.836;-0.586;2024-01-30T11:14:46;15.40;66.00
84739;DHT22;74969;44.836;-0.586;2024-01-30T11:17:12;15.60;65.20
84739;DHT22;74969;44.836;-0.586;2024-01-30T11:19:38;15.50;64.10
84739;DHT22;74969;44.836;-0.586;2024-01-30T11:22:06;15.20;66.30
84739;DHT22;74969;44.836;-0.586;2024-01-30T11:24:42;15.50;66.00
84739;DHT22;74969;44.836;-0.586;2024-01-30T11:27:10;15.80;65.70
84739;DHT22;74969;44.836;-0.586;2024-01-30T11:29:36;15.90;63.30
84739;DHT22;74969;44.836;-0.586;2024-01-30T11:32:02;15.50;64.70
84739;DHT22;74969;44.836;-0.586;2024-01-30T11:34:28;15.40;65.00
84739;DHT22;74969;44.836;-0.586;2024-01-30T11:36:59;15.60;65.70
84739;DHT22;74969;44.836;-0.586;2024-01-30T11:39:25;15.80;64.60
84739;DHT22;74969;44.836;-0.586;2024-01-30T11:41:55;15.90;64.10
84739;DHT22;74969;44.836;-0.586;2024-01-30T11:44:21;16.00;63.50
84739;DHT22;74969;44.836;-0.586;2024-01-30T11:46:48;16.00;63.10
84739;DHT22;74969;44.836;-0.586;2024-01-30T11:49:14;16.10;63.30
84739;DHT22;74969;44.836;-0.586;2024-01-30T11:51:40;16.20;63.30
84739;DHT22;74969;44.836;-0.586;2024-01-30T11:54:06;16.40;63.30
84739;DHT22;74969;44.836;-0.586;2024-01-30T11:56:32;16.40;62.90
84739;DHT22;74969;44.836;-0.586;2024-01-30T11:58:59;16.50;62.40
84739;DHT22;74969;44.836;-0.586;2024-01-30T12:01:28;16.40;63.70
84739;DHT22;74969;44.836;-0.586;2024-01-30T12:03:55;16.50;63.30
84739;DHT22;74969;44.836;-0.586;2024-01-30T12:06:23;16.50;62.00
84739;DHT22;74969;44.836;-0.586;2024-01-30T12:09:15;16.50;62.30
84739;DHT22;74969;44.836;-0.586;2024-01-30T12:11:46;16.50;62.70
84739;DHT22;74969;44.836;-0.586;2024-01-30T12:14:12;16.50;62.40
84739;DHT22;74969;44.836;-0.586;2024-01-30T12:16:38;16.40;62.50
84739;DHT22;74969;44.836;-0.586;2024-01-30T12:19:04;16.40;62.00
84739;DHT22;74969;44.836;-0.586;2024-01-30T12:21:30;16.00;62.40
84739;DHT22;74969;44.836;-0.586;2024-01-30T12:23:57;15.80;63.50
84739;DHT22;74969;44.836;-0.586;2024-01-30T12:26:24;15.90;64.10
84739;DHT22;74969;44.836;-0.586;2024-01-30T12:28:53;16.00;63.60
84739;DHT22;74969;44.836;-0.586;2024-01-30T12:31:26;16.00;63.20
84739;DHT22;74969;44.836;-0.586;2024-01-30T12:33:52;16.00;62.90
84739;DHT22;74969;44.836;-0.586;2024-01-30T12:36:18;16.00;63.00
84739;DHT22;74969;44.836;-0.586;2024-01-30T12:38:44;16.10;63.20
84739;DHT22;74969;44.836;-0.586;2024-01-30T12:41:10;16.10;62.70
84739;DHT22;74969;44.836;-0.586;2024-01-30T12:43:37;16.20;63.40
84739;DHT22;74969;44.836;-0.586;2024-01-30T12:46:03;16.20;62.30
84739;DHT22;74969;44.836;-0.586;2024-01-30T12:48:28;16.10;62.20
84739;DHT22;74969;44.836;-0.586;2024-01-30T12:50:56;16.10;62.80
84739;DHT22;74969;44.836;-0.586;2024-01-30T12:53:21;16.10;62.50
84739;DHT22;74969;44.836;-0.586;2024-01-30T12:55:47;16.10;62.30
84739;DHT22;74969;44.836;-0.586;2024-01-30T12:58:15;16.10;62.80
84739;DHT22;74969;44.836;-0.586;2024-01-30T13:00:41;16.20;62.10
84739;DHT22;74969;44.836;-0.586;2024-01-30T13:03:09;16.20;62.50
84739;DHT22;74969;44.836;-0.586;2024-01-30T13:05:35;16.30;62.30
84739;DHT22;74969;44.836;-0.586;2024-01-30T13:08:01;16.30;62.30
84739;DHT22;74969;44.836;-0.586;2024-01-30T13:10:26;16.40;62.70
84739;DHT22;74969;44.836;-0.586;2024-01-30T13:12:53;16.50;61.20
84739;DHT22;74969;44.836;-0.586;2024-01-30T13:15:18;16.40;61.30
84739;DHT22;74969;44.836;-0.586;2024-01-30T13:17:44;16.40;62.00
84739;DHT22;74969;44.836;-0.586;2024-01-30T13:20:13;16.40;61.10
84739;DHT22;74969;44.836;-0.586;2024-01-30T13:22:43;16.50;61.90
84739;DHT22;74969;44.836;-0.586;2024-01-30T13:25:08;16.50;60.90
84739;DHT22;74969;44.836;-0.586;2024-01-30T13:27:35;16.50;61.40
84739;DHT22;74969;44.836;-0.586;2024-01-30T13:30:01;16.60;60.90
84739;DHT22;74969;44.836;-0.586;2024-01-30T13:32:26;16.60;61.00
84739;DHT22;74969;44.836;-0.586;2024-01-30T13:34:52;16.60;61.30
84739;DHT22;74969;44.836;-0.586;2024-01-30T13:37:18;16.70;61.10
84739;DHT22;74969;44.836;-0.586;2024-01-30T13:39:43;16.70;60.90
84739;DHT22;74969;44.836;-0.586;2024-01-30T13:42:09;16.60;60.50
84739;DHT22;74969;44.836;-0.586;2024-01-30T13:44:35;16.60;60.90
84739;DHT22;74969;44.836;-0.586;2024-01-30T13:47:01;16.60;61.20
84739;DHT22;74969;44.836;-0.586;2024-01-30T13:49:28;16.60;60.50
84739;DHT22;74969;44.836;-0.586;2024-01-30T13:51:54;16.70;61.50
84739;DHT22;74969;44.836;-0.586;2024-01-30T13:54:20;16.80;60.10
84739;DHT22;74969;44.836;-0.586;2024-01-30T13:56:46;16.80;60.40
84739;DHT22;74969;44.836;-0.586;2024-01-30T13:59:12;16.80;60.90
84739;DHT22;74969;44.836;-0.586;2024-01-30T14:01:37;16.80;60.50
84739;DHT22;74969;44.836;-0.586;2024-01-30T14:04:03;16.80;60.90
84739;DHT22;74969;44.836;-0.586;2024-01-30T14:06:29;16.80;60.50
84739;DHT22;74969;44.836;-0.586;2024-01-30T14:08:55;16.80;60.90
84739;DHT22;74969;44.836;-0.586;2024-01-30T14:11:20;16.90;60.60
84739;DHT22;74969;44.836;-0.586;2024-01-30T14:13:46;17.00;60.60
84739;DHT22;74969;44.836;-0.586;2024-01-30T14:16:12;17.10;60.00
84739;DHT22;74969;44.836;-0.586;2024-01-30T14:18:38;17.10;60.00
84739;DHT22;74969;44.836;-0.586;2024-01-30T14:21:03;17.10;59.90
84739;DHT22;74969;44.836;-0.586;2024-01-30T14:23:29;17.20;58.80
84739;DHT22;74969;44.836;-0.586;2024-01-30T14:25:55;17.20;59.60
84739;DHT22;74969;44.836;-0.586;2024-01-30T14:28:20;17.20;59.60
84739;DHT22;74969;44.836;-0.586;2024-01-30T14:30:46;17.20;58.40
84739;DHT22;74969;44.836;-0.586;2024-01-30T14:33:12;17.00;59.00
84739;DHT22;74969;44.836;-0.586;2024-01-30T14:35:38;16.90;58.70
84739;DHT22;74969;44.836;-0.586;2024-01-30T14:38:04;16.80;59.30
84739;DHT22;74969;44.836;-0.586;2024-01-30T14:40:31;16.80;59.10
84739;DHT22;74969;44.836;-0.586;2024-01-30T14:42:56;16.80;59.40
84739;DHT22;74969;44.836;-0.586;2024-01-30T14:45:23;16.90;59.10
84739;DHT22;74969;44.836;-0.586;2024-01-30T14:47:49;16.90;59.40
84739;DHT22;74969;44.836;-0.586;2024-01-30T14:50:15;17.00;58.30
84739;DHT22;74969;44.836;-0.586;2024-01-30T14:52:42;17.00;58.50
84739;DHT22;74969;44.836;-0.586;2024-01-30T14:55:08;16.90;58.60
84739;DHT22;74969;44.836;-0.586;2024-01-30T14:57:35;16.90;58.40
84739;DHT22;74969;44.836;-0.586;2024-01-30T15:00:01;16.90;58.80
84739;DHT22;74969;44.836;-0.586;2024-01-30T15:02:26;16.90;58.40
84739;DHT22;74969;44.836;-0.586;2024-01-30T15:04:52;17.00;58.50
84739;DHT22;74969;44.836;-0.586;2024-01-30T15:07:18;17.00;58.80
84739;DHT22;74969;44.836;-0.586;2024-01-30T15:09:44;17.00;57.50
84739;DHT22;74969;44.836;-0.586;2024-01-30T15:12:09;16.90;57.40
84739;DHT22;74969;44.836;-0.586;2024-01-30T15:14:35;16.90;57.40
84739;DHT22;74969;44.836;-0.586;2024-01-30T15:17:01;16.90;57.60
84739;DHT22;74969;44.836;-0.586;2024-01-30T15:19:27;16.90;57.10
84739;DHT22;74969;44.836;-0.586;2024-01-30T15:21:52;16.90;56.80
84739;DHT22;74969;44.836;-0.586;2024-01-30T15:24:18;16.90;56.20